sensor_id;sensor_type;location;lat;lon;timestamp;P1;durP1;ratioP1;P2;durP2;ratioP2
45806;SDS011;31507;51.494;7.518;2022-11-20T00:02:15;87.50;;;40.45;;
45806;SDS011;31507;51.494;7.518;2022-11-20T00:04:40;91.70;;;43.72;;
45806;SDS011;31507;51.494;7.518;2022-11-20T00:07:06;88.28;;;41.00;;
45806;SDS011;31507;51.494;7.518;2022-11-20T00:09:31;89.32;;;42.83;;
45806;SDS011;31507;51.494;7.518;2022-11-20T00:11:57;92.43;;;42.42;;
45806;SDS011;31507;51.494;7.518;2022-11-20T00:14:22;101.53;;;45.78;;
45806;SDS011;31507;51.494;7.518;2022-11-20T00:16:48;102.70;;;45.38;;
45806;SDS011;31507;51.494;7.518;2022-11-20T00:19:14;135.90;;;53.92;;
45806;SDS011;31507;51.494;7.518;2022-11-20T00:21:39;124.10;;;52.22;;
45806;SDS011;31507;51.494;7.518;2022-11-20T00:24:05;111.70;;;49.65;;
45806;SDS011;31507;51.494;7.518;2022-11-20T00:26:33;121.43;;;51.47;;
45806;SDS011;31507;51.494;7.518;2022-11-20T00:28:59;118.40;;;51.13;;
45806;SDS011;31507;51.494;7.518;2022-11-20T00:31:26;109.72;;;48.70;;
45806;SDS011;31507;51.494;7.518;2022-11-20T00:33:52;120.03;;;49.78;;
45806;SDS011;31507;51.494;7.518;2022-11-20T00:36:19;111.22;;;48.85;;
45806;SDS011;31507;51.494;7.518;2022-11-20T00:38:46;118.45;;;52.33;;
45806;SDS011;31507;51.494;7.518;2022-11-20T00:41:13;118.43;;;52.10;;
45806;SDS011;31507;51.494;7.518;2022-11-20T00:43:39;119.88;;;53.65;;
45806;SDS011;31507;51.494;7.518;2022-11-20T00:46:09;114.20;;;51.50;;
45806;SDS011;31507;51.494;7.518;2022-11-20T00:48:38;126.10;;;50.75;;
45806;SDS011;31507;51.494;7.518;2022-11-20T00:51:03;108.72;;;50.58;;
45806;SDS011;31507;51.494;7.518;2022-11-20T00:53:29;107.63;;;49.08;;
45806;SDS011;31507;51.494;7.518;2022-11-20T00:55:56;103.82;;;49.38;;
45806;SDS011;31507;51.494;7.518;2022-11-20T00:58:30;101.28;;;47.42;;
45806;SDS011;31507;51.494;7.518;2022-11-20T01:03:41;94.63;;;45.38;;
45806;SDS011;31507;51.494;7.518;2022-11-20T01:06:24;94.55;;;41.95;;
45806;SDS011;31507;51.494;7.518;2022-11-20T01:08:55;89.90;;;43.88;;
45806;SDS011;31507;51.494;7.518;2022-11-20T01:11:26;77.35;;;40.67;;
45806;SDS011;31507;51.494;7.518;2022-11-20T01:14:02;77.35;;;38.90;;
45806;SDS011;31507;51.494;7.518;2022-11-20T01:16:31;68.05;;;37.20;;
45806;SDS011;31507;51.494;7.518;2022-11-20T01:19:02;71.65;;;37.13;;
45806;SDS011;31507;51.494;7.518;2022-11-20T01:21:31;63.92;;;34.55;;
45806;SDS011;31507;51.494;7.518;2022-11-20T01:24:01;71.15;;;33.33;;
45806;SDS011;31507;51.494;7.518;2022-11-20T01:26:29;59.40;;;33.28;;
45806;SDS011;31507;51.494;7.518;2022-11-20T01:28:57;58.15;;;31.95;;
45806;SDS011;31507;51.494;7.518;2022-11-20T01:31:28;59.47;;;32.03;;
45806;SDS011;31507;51.494;7.518;2022-11-20T01:33:56;56.28;;;32.10;;
45806;SDS011;31507;51.494;7.518;2022-11-20T01:36:23;58.63;;;31.08;;
45806;SDS011;31507;51.494;7.518;2022-11-20T01:38:54;54.40;;;31.33;;
45806;SDS011;31507;51.494;7.518;2022-11-20T01:41:22;53.30;;;29.05;;
45806;SDS011;31507;51.494;7.518;2022-11-20T01:44:08;53.63;;;30.00;;
45806;SDS011;31507;51.494;7.518;2022-11-20T01:46:38;56.13;;;29.50;;
45806;SDS011;31507;51.494;7.518;2022-11-20T01:49:11;50.60;;;29.90;;
45806;SDS011;31507;51.494;7.518;2022-11-20T01:51:45;51.47;;;30.25;;
45806;SDS011;31507;51.494;7.518;2022-11-20T01:54:35;47.28;;;28.23;;
45806;SDS011;31507;51.494;7.518;2022-11-20T01:57:04;52.55;;;29.23;;
45806;SDS011;31507;51.494;7.518;2022-11-20T01:59:32;44.95;;;27.25;;
45806;SDS011;31507;51.494;7.518;2022-11-20T02:02:01;52.30;;;29.50;;
45806;SDS011;31507;51.494;7.518;2022-11-20T02:04:27;48.10;;;27.15;;
45806;SDS011;31507;51.494;7.518;2022-11-20T02:07:02;46.22;;;27.20;;
45806;SDS011;31507;51.494;7.518;2022-11-20T02:09:30;47.10;;;28.55;;
45806;SDS011;31507;51.494;7.518;2022-11-20T02:11:56;52.03;;;30.27;;
45806;SDS011;31507;51.494;7.518;2022-11-20T02:14:23;56.20;;;31.35;;
45806;SDS011;31507;51.494;7.518;2022-11-20T02:16:49;51.90;;;30.35;;
45806;SDS011;31507;51.494;7.518;2022-11-20T02:19:23;50.35;;;30.77;;
45806;SDS011;31507;51.494;7.518;2022-11-20T02:24:39;49.33;;;28.60;;
45806;SDS011;31507;51.494;7.518;2022-11-20T02:27:07;47.83;;;28.17;;
45806;SDS011;31507;51.494;7.518;2022-11-20T02:32:17;52.92;;;29.42;;
45806;SDS011;31507;51.494;7.518;2022-11-20T02:34:43;47.67;;;29.15;;
45806;SDS011;31507;51.494;7.518;2022-11-20T02:37:09;48.38;;;28.63;;
45806;SDS011;31507;51.494;7.518;2022-11-20T02:39:34;49.55;;;29.05;;
45806;SDS011;31507;51.494;7.518;2022-11-20T02:42:00;47.45;;;28.95;;
45806;SDS011;31507;51.494;7.518;2022-11-20T02:44:27;48.58;;;28.08;;
45806;SDS011;31507;51.494;7.518;2022-11-20T02:46:52;46.10;;;28.42;;
45806;SDS011;31507;51.494;7.518;2022-11-20T02:49:18;48.72;;;28.15;;
45806;SDS011;31507;51.494;7.518;2022-11-20T02:51:43;48.63;;;28.95;;
45806;SDS011;31507;51.494;7.518;2022-11-20T02:54:09;49.42;;;29.23;;
45806;SDS011;31507;51.494;7.518;2022-11-20T02:56:37;50.03;;;28.55;;
45806;SDS011;31507;51.494;7.518;2022-11-20T02:59:03;45.63;;;29.30;;
45806;SDS011;31507;51.494;7.518;2022-11-20T03:01:29;43.90;;;28.05;;
45806;SDS011;31507;51.494;7.518;2022-11-20T03:03:55;48.25;;;28.15;;
45806;SDS011;31507;51.494;7.518;2022-11-20T03:06:21;45.97;;;28.10;;
45806;SDS011;31507;51.494;7.518;2022-11-20T03:08:47;44.55;;;27.35;;
45806;SDS011;31507;51.494;7.518;2022-11-20T03:11:13;43.70;;;27.55;;
45806;SDS011;31507;51.494;7.518;2022-11-20T03:13:39;47.92;;;26.17;;
45806;SDS011;31507;51.494;7.518;2022-11-20T03:16:05;40.28;;;25.23;;
45806;SDS011;31507;51.494;7.518;2022-11-20T03:18:36;48.22;;;27.10;;
45806;SDS011;31507;51.494;7.518;2022-11-20T03:21:02;41.53;;;26.38;;
45806;SDS011;31507;51.494;7.518;2022-11-20T03:23:29;44.92;;;26.48;;
45806;SDS011;31507;51.494;7.518;2022-11-20T03:25:56;43.55;;;24.92;;
45806;SDS011;31507;51.494;7.518;2022-11-20T03:28:31;40.70;;;25.23;;
45806;SDS011;31507;51.494;7.518;2022-11-20T03:30:56;40.42;;;24.95;;
45806;SDS011;31507;51.494;7.518;2022-11-20T03:33:22;41.45;;;24.70;;
45806;SDS011;31507;51.494;7.518;2022-11-20T03:35:48;43.75;;;24.30;;
45806;SDS011;31507;51.494;7.518;2022-11-20T03:38:13;39.35;;;23.98;;
45806;SDS011;31507;51.494;7.518;2022-11-20T03:40:39;40.35;;;23.98;;
45806;SDS011;31507;51.494;7.518;2022-11-20T03:43:04;36.92;;;24.00;;
45806;SDS011;31507;51.494;7.518;2022-11-20T03:45:30;38.53;;;24.08;;
45806;SDS011;31507;51.494;7.518;2022-11-20T03:47:55;43.08;;;24.05;;
45806;SDS011;31507;51.494;7.518;2022-11-20T03:50:21;38.72;;;23.77;;
45806;SDS011;31507;51.494;7.518;2022-11-20T03:52:46;37.70;;;23.23;;
45806;SDS011;31507;51.494;7.518;2022-11-20T03:55:12;34.90;;;22.35;;
45806;SDS011;31507;51.494;7.518;2022-11-20T03:57:38;36.78;;;22.92;;
45806;SDS011;31507;51.494;7.518;2022-11-20T04:00:04;35.95;;;22.90;;
45806;SDS011;31507;51.494;7.518;2022-11-20T04:02:30;37.58;;;22.17;;
45806;SDS011;31507;51.494;7.518;2022-11-20T04:04:56;36.10;;;23.30;;
45806;SDS011;31507;51.494;7.518;2022-11-20T04:07:21;37.22;;;22.48;;
45806;SDS011;31507;51.494;7.518;2022-11-20T04:09:47;35.30;;;22.88;;
45806;SDS011;31507;51.494;7.518;2022-11-20T04:12:13;35.50;;;22.05;;
45806;SDS011;31507;51.494;7.518;2022-11-20T04:14:38;36.58;;;22.17;;
45806;SDS011;31507;51.494;7.518;2022-11-20T04:17:04;40.17;;;23.38;;
45806;SDS011;31507;51.494;7.518;2022-11-20T04:19:29;38.05;;;23.48;;
45806;SDS011;31507;51.494;7.518;2022-11-20T04:21:55;37.92;;;22.67;;
45806;SDS011;31507;51.494;7.518;2022-11-20T04:24:21;35.63;;;22.23;;
45806;SDS011;31507;51.494;7.518;2022-11-20T04:26:46;39.03;;;22.67;;
45806;SDS011;31507;51.494;7.518;2022-11-20T04:29:12;36.88;;;21.83;;
45806;SDS011;31507;51.494;7.518;2022-11-20T04:31:37;33.80;;;22.05;;
45806;SDS011;31507;51.494;7.518;2022-11-20T04:34:04;36.20;;;23.60;;
45806;SDS011;31507;51.494;7.518;2022-11-20T04:36:31;34.92;;;22.02;;
45806;SDS011;31507;51.494;7.518;2022-11-20T04:38:59;34.20;;;21.70;;
45806;SDS011;31507;51.494;7.518;2022-11-20T04:41:28;36.60;;;21.95;;
45806;SDS011;31507;51.494;7.518;2022-11-20T04:43:56;33.50;;;21.52;;
45806;SDS011;31507;51.494;7.518;2022-11-20T04:46:28;32.25;;;21.60;;
45806;SDS011;31507;51.494;7.518;2022-11-20T04:48:55;34.13;;;21.58;;
45806;SDS011;31507;51.494;7.518;2022-11-20T04:51:21;35.45;;;21.35;;
45806;SDS011;31507;51.494;7.518;2022-11-20T04:53:47;35.42;;;22.70;;
45806;SDS011;31507;51.494;7.518;2022-11-20T04:56:12;34.50;;;21.42;;
45806;SDS011;31507;51.494;7.518;2022-11-20T04:58:39;33.47;;;21.20;;
45806;SDS011;31507;51.494;7.518;2022-11-20T05:03:31;36.00;;;21.75;;
45806;SDS011;31507;51.494;7.518;2022-11-20T05:06:01;34.35;;;21.48;;
45806;SDS011;31507;51.494;7.518;2022-11-20T05:08:29;36.45;;;21.35;;
45806;SDS011;31507;51.494;7.518;2022-11-20T05:10:59;35.60;;;21.67;;
45806;SDS011;31507;51.494;7.518;2022-11-20T05:13:26;31.90;;;21.25;;
45806;SDS011;31507;51.494;7.518;2022-11-20T05:15:52;33.70;;;22.05;;
45806;SDS011;31507;51.494;7.518;2022-11-20T05:18:17;31.90;;;21.13;;
45806;SDS011;31507;51.494;7.518;2022-11-20T05:20:43;34.88;;;20.98;;
45806;SDS011;31507;51.494;7.518;2022-11-20T05:23:08;34.90;;;20.80;;
45806;SDS011;31507;51.494;7.518;2022-11-20T05:25:34;31.38;;;20.00;;
45806;SDS011;31507;51.494;7.518;2022-11-20T05:27:59;32.33;;;20.40;;
45806;SDS011;31507;51.494;7.518;2022-11-20T05:30:25;32.92;;;20.95;;
45806;SDS011;31507;51.494;7.518;2022-11-20T05:32:51;34.38;;;22.27;;
45806;SDS011;31507;51.494;7.518;2022-11-20T05:35:16;32.63;;;21.42;;
45806;SDS011;31507;51.494;7.518;2022-11-20T05:37:42;34.63;;;19.85;;
45806;SDS011;31507;51.494;7.518;2022-11-20T05:40:08;31.13;;;19.60;;
45806;SDS011;31507;51.494;7.518;2022-11-20T05:42:34;31.83;;;20.02;;
45806;SDS011;31507;51.494;7.518;2022-11-20T05:45:01;32.20;;;20.52;;
45806;SDS011;31507;51.494;7.518;2022-11-20T05:47:31;35.22;;;20.40;;
45806;SDS011;31507;51.494;7.518;2022-11-20T05:49:58;34.47;;;20.35;;
45806;SDS011;31507;51.494;7.518;2022-11-20T05:52:24;30.10;;;19.40;;
45806;SDS011;31507;51.494;7.518;2022-11-20T05:54:52;29.58;;;20.00;;
45806;SDS011;31507;51.494;7.518;2022-11-20T05:57:18;28.55;;;19.23;;
45806;SDS011;31507;51.494;7.518;2022-11-20T05:59:43;34.80;;;21.35;;
45806;SDS011;31507;51.494;7.518;2022-11-20T06:02:09;35.88;;;21.35;;
45806;SDS011;31507;51.494;7.518;2022-11-20T06:04:35;41.25;;;23.30;;
45806;SDS011;31507;51.494;7.518;2022-11-20T06:07:00;40.20;;;22.20;;
45806;SDS011;31507;51.494;7.518;2022-11-20T06:09:26;37.72;;;21.85;;
45806;SDS011;31507;51.494;7.518;2022-11-20T06:11:51;40.40;;;24.60;;
45806;SDS011;31507;51.494;7.518;2022-11-20T06:14:17;44.72;;;24.10;;
45806;SDS011;31507;51.494;7.518;2022-11-20T06:16:42;43.28;;;24.40;;
45806;SDS011;31507;51.494;7.518;2022-11-20T06:19:08;42.92;;;24.30;;
45806;SDS011;31507;51.494;7.518;2022-11-20T06:21:34;41.22;;;22.88;;
45806;SDS011;31507;51.494;7.518;2022-11-20T06:23:59;44.92;;;24.50;;
45806;SDS011;31507;51.494;7.518;2022-11-20T06:26:26;48.00;;;24.98;;
45806;SDS011;31507;51.494;7.518;2022-11-20T06:28:53;50.60;;;25.55;;
45806;SDS011;31507;51.494;7.518;2022-11-20T06:31:21;51.88;;;27.02;;
45806;SDS011;31507;51.494;7.518;2022-11-20T06:33:48;54.33;;;27.15;;
45806;SDS011;31507;51.494;7.518;2022-11-20T06:36:15;54.95;;;27.02;;
45806;SDS011;31507;51.494;7.518;2022-11-20T06:38:42;52.58;;;26.88;;
45806;SDS011;31507;51.494;7.518;2022-11-20T06:41:11;52.25;;;27.38;;
45806;SDS011;31507;51.494;7.518;2022-11-20T06:43:39;57.13;;;27.92;;
45806;SDS011;31507;51.494;7.518;2022-11-20T06:46:04;52.63;;;27.35;;
45806;SDS011;31507;51.494;7.518;2022-11-20T06:48:30;55.90;;;27.60;;
45806;SDS011;31507;51.494;7.518;2022-11-20T06:50:56;54.22;;;26.65;;
45806;SDS011;31507;51.494;7.518;2022-11-20T06:53:22;57.45;;;29.30;;
45806;SDS011;31507;51.494;7.518;2022-11-20T06:55:49;62.22;;;29.92;;
45806;SDS011;31507;51.494;7.518;2022-11-20T06:58:16;61.10;;;29.65;;
45806;SDS011;31507;51.494;7.518;2022-11-20T07:00:43;63.75;;;30.58;;
45806;SDS011;31507;51.494;7.518;2022-11-20T07:03:09;67.78;;;29.77;;
45806;SDS011;31507;51.494;7.518;2022-11-20T07:05:35;62.20;;;30.38;;
45806;SDS011;31507;51.494;7.518;2022-11-20T07:08:03;64.60;;;30.52;;
45806;SDS011;31507;51.494;7.518;2022-11-20T07:10:30;68.10;;;31.33;;
45806;SDS011;31507;51.494;7.518;2022-11-20T07:12:56;68.63;;;31.27;;
45806;SDS011;31507;51.494;7.518;2022-11-20T07:15:22;68.72;;;31.48;;
45806;SDS011;31507;51.494;7.518;2022-11-20T07:17:49;76.38;;;32.92;;
45806;SDS011;31507;51.494;7.518;2022-11-20T07:20:15;67.75;;;32.63;;
45806;SDS011;31507;51.494;7.518;2022-11-20T07:22:41;78.25;;;33.22;;
45806;SDS011;31507;51.494;7.518;2022-11-20T07:25:07;69.90;;;32.30;;
45806;SDS011;31507;51.494;7.518;2022-11-20T07:27:34;70.45;;;32.22;;
45806;SDS011;31507;51.494;7.518;2022-11-20T07:30:00;64.70;;;30.52;;
45806;SDS011;31507;51.494;7.518;2022-11-20T07:32:26;70.45;;;32.50;;
45806;SDS011;31507;51.494;7.518;2022-11-20T07:34:52;72.30;;;30.88;;
45806;SDS011;31507;51.494;7.518;2022-11-20T07:37:18;71.78;;;32.50;;
45806;SDS011;31507;51.494;7.518;2022-11-20T07:39:43;78.32;;;37.20;;
45806;SDS011;31507;51.494;7.518;2022-11-20T07:42:09;85.72;;;37.08;;
45806;SDS011;31507;51.494;7.518;2022-11-20T07:44:37;89.53;;;38.33;;
45806;SDS011;31507;51.494;7.518;2022-11-20T07:47:03;100.80;;;38.25;;
45806;SDS011;31507;51.494;7.518;2022-11-20T07:49:29;94.78;;;38.75;;
45806;SDS011;31507;51.494;7.518;2022-11-20T07:51:54;88.20;;;37.75;;
45806;SDS011;31507;51.494;7.518;2022-11-20T07:54:21;90.10;;;38.67;;
45806;SDS011;31507;51.494;7.518;2022-11-20T07:56:47;95.45;;;39.67;;
45806;SDS011;31507;51.494;7.518;2022-11-20T07:59:15;87.55;;;37.53;;
45806;SDS011;31507;51.494;7.518;2022-11-20T08:01:41;86.05;;;39.13;;
45806;SDS011;31507;51.494;7.518;2022-11-20T08:04:08;82.35;;;38.47;;
45806;SDS011;31507;51.494;7.518;2022-11-20T08:06:34;86.68;;;39.08;;
45806;SDS011;31507;51.494;7.518;2022-11-20T08:09:00;98.25;;;42.67;;
45806;SDS011;31507;51.494;7.518;2022-11-20T08:11:26;89.38;;;42.33;;
45806;SDS011;31507;51.494;7.518;2022-11-20T08:14:10;89.85;;;42.00;;
45806;SDS011;31507;51.494;7.518;2022-11-20T08:16:39;85.15;;;42.17;;
45806;SDS011;31507;51.494;7.518;2022-11-20T08:19:09;84.20;;;40.35;;
45806;SDS011;31507;51.494;7.518;2022-11-20T08:21:35;74.03;;;36.95;;
45806;SDS011;31507;51.494;7.518;2022-11-20T08:24:01;63.45;;;35.35;;
45806;SDS011;31507;51.494;7.518;2022-11-20T08:26:27;59.55;;;32.72;;
45806;SDS011;31507;51.494;7.518;2022-11-20T08:28:53;57.92;;;32.03;;
45806;SDS011;31507;51.494;7.518;2022-11-20T08:31:20;54.88;;;31.17;;
45806;SDS011;31507;51.494;7.518;2022-11-20T08:33:46;55.63;;;32.10;;
45806;SDS011;31507;51.494;7.518;2022-11-20T08:36:12;57.25;;;32.17;;
45806;SDS011;31507;51.494;7.518;2022-11-20T08:38:37;52.80;;;29.52;;
45806;SDS011;31507;51.494;7.518;2022-11-20T08:41:03;50.58;;;29.35;;
45806;SDS011;31507;51.494;7.518;2022-11-20T08:43:48;45.25;;;30.27;;
45806;SDS011;31507;51.494;7.518;2022-11-20T08:46:15;40.95;;;26.95;;
45806;SDS011;31507;51.494;7.518;2022-11-20T08:48:41;36.70;;;25.05;;
45806;SDS011;31507;51.494;7.518;2022-11-20T08:51:07;40.22;;;24.80;;
45806;SDS011;31507;51.494;7.518;2022-11-20T08:53:33;23.88;;;17.65;;
45806;SDS011;31507;51.494;7.518;2022-11-20T08:55:58;21.58;;;16.13;;
45806;SDS011;31507;51.494;7.518;2022-11-20T08:58:24;20.02;;;14.27;;
45806;SDS011;31507;51.494;7.518;2022-11-20T09:00:50;22.13;;;16.20;;
45806;SDS011;31507;51.494;7.518;2022-11-20T09:03:16;18.27;;;14.40;;
45806;SDS011;31507;51.494;7.518;2022-11-20T09:05:42;18.85;;;14.05;;
45806;SDS011;31507;51.494;7.518;2022-11-20T09:08:08;15.43;;;11.60;;
45806;SDS011;31507;51.494;7.518;2022-11-20T09:10:34;18.23;;;13.50;;
45806;SDS011;31507;51.494;7.518;2022-11-20T09:12:59;18.17;;;11.57;;
45806;SDS011;31507;51.494;7.518;2022-11-20T09:15:25;15.57;;;11.77;;
45806;SDS011;31507;51.494;7.518;2022-11-20T09:17:54;14.75;;;11.27;;
45806;SDS011;31507;51.494;7.518;2022-11-20T09:20:23;18.33;;;12.02;;
45806;SDS011;31507;51.494;7.518;2022-11-20T09:22:49;16.25;;;11.73;;
45806;SDS011;31507;51.494;7.518;2022-11-20T09:25:15;15.27;;;11.75;;
45806;SDS011;31507;51.494;7.518;2022-11-20T09:27:41;12.70;;;9.93;;
45806;SDS011;31507;51.494;7.518;2022-11-20T09:30:08;16.48;;;12.05;;
45806;SDS011;31507;51.494;7.518;2022-11-20T09:32:34;16.45;;;9.60;;
45806;SDS011;31507;51.494;7.518;2022-11-20T09:35:00;14.10;;;10.07;;
45806;SDS011;31507;51.494;7.518;2022-11-20T09:37:26;14.80;;;11.15;;
45806;SDS011;31507;51.494;7.518;2022-11-20T09:39:52;20.13;;;11.48;;
45806;SDS011;31507;51.494;7.518;2022-11-20T09:50:45;16.65;;;10.90;;
45806;SDS011;31507;51.494;7.518;2022-11-20T09:56:12;18.50;;;11.25;;
45806;SDS011;31507;51.494;7.518;2022-11-20T09:58:40;16.48;;;11.10;;
45806;SDS011;31507;51.494;7.518;2022-11-20T10:01:12;16.25;;;11.02;;
45806;SDS011;31507;51.494;7.518;2022-11-20T10:03:58;16.35;;;10.00;;
45806;SDS011;31507;51.494;7.518;2022-11-20T10:09:06;19.85;;;12.15;;
45806;SDS011;31507;51.494;7.518;2022-11-20T10:14:49;18.88;;;12.93;;
45806;SDS011;31507;51.494;7.518;2022-11-20T10:17:52;18.98;;;12.45;;
45806;SDS011;31507;51.494;7.518;2022-11-20T10:23:14;22.15;;;12.27;;
45806;SDS011;31507;51.494;7.518;2022-11-20T10:31:11;18.77;;;12.10;;
45806;SDS011;31507;51.494;7.518;2022-11-20T10:33:48;19.80;;;13.25;;
45806;SDS011;31507;51.494;7.518;2022-11-20T10:38:57;15.55;;;11.68;;
45806;SDS011;31507;51.494;7.518;2022-11-20T10:41:29;14.73;;;11.57;;
45806;SDS011;31507;51.494;7.518;2022-11-20T10:44:21;19.48;;;13.38;;
45806;SDS011;31507;51.494;7.518;2022-11-20T10:47:13;16.30;;;12.63;;
45806;SDS011;31507;51.494;7.518;2022-11-20T10:49:41;17.27;;;12.43;;
45806;SDS011;31507;51.494;7.518;2022-11-20T11:00:37;10.45;;;7.82;;
45806;SDS011;31507;51.494;7.518;2022-11-20T11:03:07;9.95;;;7.45;;
45806;SDS011;31507;51.494;7.518;2022-11-20T11:05:48;10.32;;;6.90;;
45806;SDS011;31507;51.494;7.518;2022-11-20T11:08:19;9.43;;;6.82;;
45806;SDS011;31507;51.494;7.518;2022-11-20T11:10:51;12.85;;;8.05;;
45806;SDS011;31507;51.494;7.518;2022-11-20T11:13:22;9.18;;;7.18;;
45806;SDS011;31507;51.494;7.518;2022-11-20T11:15:50;10.00;;;7.50;;
45806;SDS011;31507;51.494;7.518;2022-11-20T11:18:22;8.57;;;7.22;;
45806;SDS011;31507;51.494;7.518;2022-11-20T11:20:53;13.93;;;9.38;;
45806;SDS011;31507;51.494;7.518;2022-11-20T11:23:28;11.98;;;8.60;;
45806;SDS011;31507;51.494;7.518;2022-11-20T11:26:02;14.93;;;9.27;;
45806;SDS011;31507;51.494;7.518;2022-11-20T11:28:30;12.23;;;8.57;;
45806;SDS011;31507;51.494;7.518;2022-11-20T11:30:56;9.88;;;8.60;;
45806;SDS011;31507;51.494;7.518;2022-11-20T11:35:55;13.70;;;8.95;;
45806;SDS011;31507;51.494;7.518;2022-11-20T11:38:29;12.48;;;8.40;;
45806;SDS011;31507;51.494;7.518;2022-11-20T11:41:00;13.82;;;9.32;;
45806;SDS011;31507;51.494;7.518;2022-11-20T11:43:28;12.30;;;8.85;;
45806;SDS011;31507;51.494;7.518;2022-11-20T11:46:26;13.43;;;9.65;;
45806;SDS011;31507;51.494;7.518;2022-11-20T11:51:36;13.55;;;9.10;;
45806;SDS011;31507;51.494;7.518;2022-11-20T11:54:14;13.88;;;9.63;;
45806;SDS011;31507;51.494;7.518;2022-11-20T11:56:42;12.13;;;9.10;;
45806;SDS011;31507;51.494;7.518;2022-11-20T11:59:11;12.68;;;9.25;;
45806;SDS011;31507;51.494;7.518;2022-11-20T12:05:03;11.93;;;9.25;;
45806;SDS011;31507;51.494;7.518;2022-11-20T12:07:56;11.57;;;8.13;;
45806;SDS011;31507;51.494;7.518;2022-11-20T12:10:48;14.57;;;8.93;;
45806;SDS011;31507;51.494;7.518;2022-11-20T12:15:58;12.40;;;10.07;;
45806;SDS011;31507;51.494;7.518;2022-11-20T12:18:25;14.50;;;10.85;;
45806;SDS011;31507;51.494;7.518;2022-11-20T12:34:38;11.55;;;9.00;;
45806;SDS011;31507;51.494;7.518;2022-11-20T12:42:46;10.95;;;8.52;;
45806;SDS011;31507;51.494;7.518;2022-11-20T12:48:34;14.15;;;9.85;;
45806;SDS011;31507;51.494;7.518;2022-11-20T12:56:46;10.90;;;8.70;;
45806;SDS011;31507;51.494;7.518;2022-11-20T13:08:15;99.97;;;40.45;;
45806;SDS011;31507;51.494;7.518;2022-11-20T13:13:52;16.08;;;12.10;;
45806;SDS011;31507;51.494;7.518;2022-11-20T13:16:37;16.20;;;11.18;;
45806;SDS011;31507;51.494;7.518;2022-11-20T13:19:22;13.60;;;10.43;;
45806;SDS011;31507;51.494;7.518;2022-11-20T13:21:48;14.95;;;10.68;;
45806;SDS011;31507;51.494;7.518;2022-11-20T13:29:40;18.02;;;12.38;;
45806;SDS011;31507;51.494;7.518;2022-11-20T13:32:16;17.52;;;12.50;;
45806;SDS011;31507;51.494;7.518;2022-11-20T13:34:52;17.45;;;12.35;;
45806;SDS011;31507;51.494;7.518;2022-11-20T13:37:40;19.15;;;11.68;;
45806;SDS011;31507;51.494;7.518;2022-11-20T13:42:54;16.98;;;11.88;;
45806;SDS011;31507;51.494;7.518;2022-11-20T13:45:26;15.75;;;11.35;;
45806;SDS011;31507;51.494;7.518;2022-11-20T13:47:54;17.65;;;12.57;;
45806;SDS011;31507;51.494;7.518;2022-11-20T13:50:27;20.88;;;12.27;;
45806;SDS011;31507;51.494;7.518;2022-11-20T13:53:18;18.08;;;12.63;;
45806;SDS011;31507;51.494;7.518;2022-11-20T13:59:02;16.13;;;11.95;;
45806;SDS011;31507;51.494;7.518;2022-11-20T14:01:37;18.15;;;12.55;;
45806;SDS011;31507;51.494;7.518;2022-11-20T14:04:08;19.00;;;12.27;;
45806;SDS011;31507;51.494;7.518;2022-11-20T14:06:41;17.85;;;12.05;;
45806;SDS011;31507;51.494;7.518;2022-11-20T14:09:10;16.48;;;11.82;;
45806;SDS011;31507;51.494;7.518;2022-11-20T14:11:55;18.35;;;12.68;;
45806;SDS011;31507;51.494;7.518;2022-11-20T14:14:22;16.65;;;12.55;;
45806;SDS011;31507;51.494;7.518;2022-11-20T14:16:49;18.60;;;12.80;;
45806;SDS011;31507;51.494;7.518;2022-11-20T14:21:46;18.20;;;12.55;;
45806;SDS011;31507;51.494;7.518;2022-11-20T14:24:12;19.92;;;12.68;;
45806;SDS011;31507;51.494;7.518;2022-11-20T14:26:42;20.58;;;11.75;;
45806;SDS011;31507;51.494;7.518;2022-11-20T14:29:13;20.70;;;12.60;;
45806;SDS011;31507;51.494;7.518;2022-11-20T14:31:40;18.17;;;12.45;;
45806;SDS011;31507;51.494;7.518;2022-11-20T14:34:13;19.55;;;13.60;;
45806;SDS011;31507;51.494;7.518;2022-11-20T14:36:43;20.35;;;13.30;;
45806;SDS011;31507;51.494;7.518;2022-11-20T14:39:10;21.70;;;12.65;;
45806;SDS011;31507;51.494;7.518;2022-11-20T14:41:50;16.67;;;12.20;;
45806;SDS011;31507;51.494;7.518;2022-11-20T14:44:16;18.77;;;12.70;;
45806;SDS011;31507;51.494;7.518;2022-11-20T14:46:42;16.65;;;12.38;;
45806;SDS011;31507;51.494;7.518;2022-11-20T14:49:08;21.60;;;13.02;;
45806;SDS011;31507;51.494;7.518;2022-11-20T14:51:37;18.40;;;12.98;;
45806;SDS011;31507;51.494;7.518;2022-11-20T14:56:41;18.13;;;12.85;;
45806;SDS011;31507;51.494;7.518;2022-11-20T14:59:07;17.63;;;13.13;;
45806;SDS011;31507;51.494;7.518;2022-11-20T15:01:34;18.00;;;12.50;;
45806;SDS011;31507;51.494;7.518;2022-11-20T15:04:01;19.88;;;13.50;;
45806;SDS011;31507;51.494;7.518;2022-11-20T15:06:32;19.33;;;12.95;;
45806;SDS011;31507;51.494;7.518;2022-11-20T15:08:58;17.08;;;12.65;;
45806;SDS011;31507;51.494;7.518;2022-11-20T15:11:31;17.85;;;13.13;;
45806;SDS011;31507;51.494;7.518;2022-11-20T15:14:01;16.70;;;12.93;;
45806;SDS011;31507;51.494;7.518;2022-11-20T15:16:29;17.42;;;12.55;;
45806;SDS011;31507;51.494;7.518;2022-11-20T15:18:55;19.67;;;13.40;;
45806;SDS011;31507;51.494;7.518;2022-11-20T15:21:21;19.70;;;13.68;;
45806;SDS011;31507;51.494;7.518;2022-11-20T15:23:47;20.40;;;13.48;;
45806;SDS011;31507;51.494;7.518;2022-11-20T15:26:13;22.48;;;15.25;;
45806;SDS011;31507;51.494;7.518;2022-11-20T15:28:50;29.67;;;15.95;;
45806;SDS011;31507;51.494;7.518;2022-11-20T15:31:23;23.65;;;15.32;;
45806;SDS011;31507;51.494;7.518;2022-11-20T15:33:49;24.42;;;16.63;;
45806;SDS011;31507;51.494;7.518;2022-11-20T15:36:15;27.10;;;17.60;;
45806;SDS011;31507;51.494;7.518;2022-11-20T15:38:41;26.70;;;18.02;;
45806;SDS011;31507;51.494;7.518;2022-11-20T15:41:07;29.20;;;18.52;;
45806;SDS011;31507;51.494;7.518;2022-11-20T15:43:33;27.15;;;17.73;;
45806;SDS011;31507;51.494;7.518;2022-11-20T15:45:59;30.23;;;18.98;;
45806;SDS011;31507;51.494;7.518;2022-11-20T15:48:38;28.15;;;18.95;;
45806;SDS011;31507;51.494;7.518;2022-11-20T15:54:00;33.15;;;19.85;;
45806;SDS011;31507;51.494;7.518;2022-11-20T15:56:33;30.50;;;19.48;;
45806;SDS011;31507;51.494;7.518;2022-11-20T15:58:59;35.55;;;21.42;;
45806;SDS011;31507;51.494;7.518;2022-11-20T16:01:25;37.20;;;21.13;;
45806;SDS011;31507;51.494;7.518;2022-11-20T16:03:50;33.40;;;20.67;;
45806;SDS011;31507;51.494;7.518;2022-11-20T16:06:16;34.60;;;21.98;;
45806;SDS011;31507;51.494;7.518;2022-11-20T16:08:41;37.63;;;23.13;;
45806;SDS011;31507;51.494;7.518;2022-11-20T16:11:10;34.55;;;22.48;;
45806;SDS011;31507;51.494;7.518;2022-11-20T16:13:40;36.67;;;22.30;;
45806;SDS011;31507;51.494;7.518;2022-11-20T16:18:53;36.33;;;22.40;;
45806;SDS011;31507;51.494;7.518;2022-11-20T16:21:19;39.33;;;24.13;;
45806;SDS011;31507;51.494;7.518;2022-11-20T16:23:45;45.13;;;24.48;;
45806;SDS011;31507;51.494;7.518;2022-11-20T16:26:12;42.38;;;23.55;;
45806;SDS011;31507;51.494;7.518;2022-11-20T16:28:39;42.67;;;24.27;;
45806;SDS011;31507;51.494;7.518;2022-11-20T16:31:11;45.72;;;26.23;;